Time;durP1;ratioP1;P1;durP2;ratioP2;P2;SDS_P1;SDS_P2;PMS_P1;PMS_P2;Temp;Humidity;BMP_temperature;BMP_pressure;BME280_temperature;BME280_humidity;BME280_pressure;Samples;Min_cycle;Max_cycle;Signal;HPM_P1;HPM_P2
2022/01/31 00:00:35;;;;;;;;;;;5.90;99.90;;;;;;2114220;28;20035;-69
2022/01/31 00:01:36;;;;;;;;;;;5.90;99.90;;;;;;2110430;28;20005;-69
2022/01/31 00:02:36;;;;;;;;;;;5.90;99.90;;;;;;2114211;28;19912;-70
2022/01/31 00:03:37;;;;;;;;;;;5.90;99.90;;;;;;2111434;28;19908;-69
2022/01/31 00:04:37;;;;;;;;;;;5.90;99.90;;;;;;2113983;28;20382;-69
2022/01/31 00:05:38;;;;;;;;;;;5.90;99.90;;;;;;2111770;28;19947;-70
2022/01/31 00:06:38;;;;;;;;;;;5.90;99.90;;;;;;2114616;28;20352;-69
2022/01/31 00:07:39;;;;;;;;;;;5.90;99.90;;;;;;2114496;28;20363;-69
2022/01/31 00:08:42;;;;;;;;;;;5.90;99.90;;;;;;2113507;28;20382;-69
2022/01/31 00:09:44;;;;;;;;;;;5.90;99.90;;;;;;2115709;28;20443;-69
2022/01/31 00:10:45;;;;;;;;;;;5.90;99.90;;;;;;2113345;28;19930;-69
2022/01/31 00:11:55;;;;;;;;;;;5.90;99.90;;;;;;2111899;28;19955;-70
2022/01/31 00:13:08;;;;;;;;;;;5.90;99.90;;;;;;2111721;28;19915;-69
2022/01/31 00:14:20;;;;;;;;;;;5.90;99.90;;;;;;2114849;28;19912;-69
2022/01/31 00:15:23;;;;;;;;;;;5.90;99.90;;;;;;2112372;28;19908;-69
2022/01/31 00:16:26;;;;;;;;;;;5.90;99.90;;;;;;2111737;28;19964;-69
2022/01/31 00:17:26;;;;;;;;;;;5.90;99.90;;;;;;2114189;28;20018;-69
2022/01/31 00:18:26;;;;;;;;;;;5.90;99.90;;;;;;2106651;28;19916;-69
2022/01/31 00:19:28;;;;;;;;;;;5.90;99.90;;;;;;2106168;28;19916;-69
2022/01/31 00:20:28;;;;;;;;;;;5.90;99.90;;;;;;2106475;28;19912;-70
2022/01/31 00:21:29;;;;;;;;;;;5.90;99.90;;;;;;2111610;28;20385;-69
2022/01/31 00:22:29;;;;;;;;;;;5.90;99.90;;;;;;2115713;28;19916;-69
2022/01/31 00:23:30;;;;;;;;;;;5.90;99.90;;;;;;2114222;28;19915;-69
2022/01/31 00:24:30;;;;;;;;;;;5.90;99.90;;;;;;2114565;28;20269;-69
2022/01/31 00:25:31;;;;;;;;;;;5.90;99.90;;;;;;2103900;28;20348;-69
2022/01/31 00:26:31;;;;;;;;;;;5.90;99.90;;;;;;2104386;28;19931;-70
2022/01/31 00:27:32;;;;;;;;;;;5.90;99.90;;;;;;2112517;28;19948;-69
2022/01/31 00:28:32;;;;;;;;;;;5.90;99.90;;;;;;2114660;28;20263;-69
2022/01/31 00:29:32;;;;;;;;;;;5.90;99.90;;;;;;2112479;28;19947;-69
2022/01/31 00:30:33;;;;;;;;;;;5.90;99.90;;;;;;2112851;28;19909;-70
2022/01/31 00:31:33;;;;;;;;;;;5.90;99.90;;;;;;2115375;28;20368;-69
2022/01/31 00:32:35;;;;;;;;;;;5.90;99.90;;;;;;2115720;28;19918;-69
2022/01/31 00:33:36;;;;;;;;;;;5.90;99.90;;;;;;2115663;28;20369;-69
2022/01/31 00:34:36;;;;;;;;;;;5.90;99.90;;;;;;2115064;28;20287;-69
2022/01/31 00:35:37;;;;;;;;;;;5.90;99.90;;;;;;2106356;28;19947;-69
2022/01/31 00:36:37;;;;;;;;;;;5.90;99.90;;;;;;2106388;28;20275;-69
2022/01/31 00:37:38;;;;;;;;;;;6.00;99.90;;;;;;2113471;28;20002;-69
2022/01/31 00:38:38;;;;;;;;;;;6.00;99.90;;;;;;2113772;28;19955;-69
2022/01/31 00:39:38;;;;;;;;;;;6.00;99.90;;;;;;2113095;28;19907;-69
2022/01/31 00:40:41;;;;;;;;;;;6.00;99.90;;;;;;2115062;28;20294;-69
2022/01/31 00:41:42;;;;;;;;;;;6.00;99.90;;;;;;2112276;28;19909;-69
2022/01/31 00:42:43;;;;;;;;;;;6.00;99.90;;;;;;2105804;28;19989;-69
2022/01/31 00:43:54;;;;;;;;;;;6.00;99.90;;;;;;2106688;28;19950;-69
2022/01/31 00:44:59;;;;;;;;;;;6.00;99.90;;;;;;2102834;28;20395;-69
2022/01/31 00:46:03;;;;;;;;;;;6.00;99.90;;;;;;2105670;28;19919;-69
2022/01/31 00:47:15;;;;;;;;;;;6.00;99.90;;;;;;2110931;28;19916;-69
2022/01/31 00:48:19;;;;;;;;;;;6.00;99.90;;;;;;2110334;28;20003;-69
2022/01/31 00:49:33;;;;;;;;;;;6.00;99.90;;;;;;2112142;28;20018;-69
2022/01/31 00:50:39;;;;;;;;;;;6.00;99.90;;;;;;2111091;28;19915;-69
2022/01/31 00:51:39;;;;;;;;;;;6.00;99.90;;;;;;2111519;28;19944;-69
2022/01/31 00:52:42;;;;;;;;;;;6.00;99.90;;;;;;2115107;28;19919;-69
2022/01/31 00:53:43;;;;;;;;;;;6.00;99.90;;;;;;2112530;28;20383;-70
2022/01/31 00:54:44;;;;;;;;;;;6.00;99.90;;;;;;2113010;28;19911;-70
2022/01/31 00:55:44;;;;;;;;;;;6.00;99.90;;;;;;2113600;28;19912;-70
2022/01/31 00:56:45;;;;;;;;;;;6.00;99.90;;;;;;2111346;28;19915;-69
2022/01/31 00:57:45;;;;;;;;;;;6.00;99.90;;;;;;2115346;28;19955;-69
2022/01/31 00:58:46;;;;;;;;;;;6.00;99.90;;;;;;2111556;28;20386;-69
2022/01/31 00:59:50;;;;;;;;;;;6.00;99.90;;;;;;2114145;28;20359;-69
2022/01/31 01:00:51;;;;;;;;;;;6.10;99.90;;;;;;2113219;28;19920;-69
2022/01/31 01:01:51;;;;;;;;;;;6.00;99.90;;;;;;2111314;27;19916;-69
2022/01/31 01:02:52;;;;;;;;;;;6.00;99.90;;;;;;2114479;27;20260;-70
2022/01/31 01:03:52;;;;;;;;;;;6.00;99.90;;;;;;2112869;27;19919;-69
2022/01/31 01:04:53;;;;;;;;;;;6.10;99.90;;;;;;2113633;28;19911;-69
2022/01/31 01:05:54;;;;;;;;;;;6.00;99.90;;;;;;2112322;28;20353;-70
2022/01/31 01:06:54;;;;;;;;;;;6.00;99.90;;;;;;2113540;28;19973;-69
2022/01/31 01:07:55;;;;;;;;;;;6.10;99.90;;;;;;2109572;28;19940;-69
2022/01/31 01:08:56;;;;;;;;;;;6.10;99.90;;;;;;2104466;28;19961;-69
2022/01/31 01:09:56;;;;;;;;;;;6.10;99.90;;;;;;2104528;28;20630;-69
2022/01/31 01:10:57;;;;;;;;;;;6.10;99.90;;;;;;2109774;28;19915;-69
2022/01/31 01:11:57;;;;;;;;;;;6.00;99.90;;;;;;2113097;28;19935;-69
2022/01/31 01:12:57;;;;;;;;;;;6.00;99.90;;;;;;2110140;28;19919;-69
2022/01/31 01:13:58;;;;;;;;;;;6.10;99.90;;;;;;2104222;28;19919;-69
2022/01/31 01:14:58;;;;;;;;;;;6.10;99.90;;;;;;2104613;28;19912;-69
2022/01/31 01:15:59;;;;;;;;;;;6.10;99.90;;;;;;2110020;28;19919;-69
2022/01/31 01:16:59;;;;;;;;;;;6.10;99.90;;;;;;2104707;28;20414;-69
2022/01/31 01:18:00;;;;;;;;;;;6.10;99.90;;;;;;2104489;28;19912;-69
2022/01/31 01:19:00;;;;;;;;;;;6.10;99.90;;;;;;2112771;28;19915;-69
2022/01/31 01:20:02;;;;;;;;;;;6.10;99.90;;;;;;2112325;28;20023;-69
2022/01/31 01:21:02;;;;;;;;;;;6.10;99.90;;;;;;2109780;28;20336;-69
2022/01/31 01:22:03;;;;;;;;;;;6.10;99.90;;;;;;2111002;28;20408;-69
2022/01/31 01:23:04;;;;;;;;;;;6.10;99.90;;;;;;2112002;28;19920;-70
2022/01/31 01:24:04;;;;;;;;;;;6.10;99.90;;;;;;2113270;28;19912;-70
2022/01/31 01:25:06;;;;;;;;;;;6.10;99.90;;;;;;2113361;28;19954;-70
2022/01/31 01:26:08;;;;;;;;;;;6.10;99.90;;;;;;2112079;28;19927;-69
2022/01/31 01:27:09;;;;;;;;;;;6.10;99.90;;;;;;2112120;28;19915;-69
2022/01/31 01:28:10;;;;;;;;;;;6.10;99.90;;;;;;2113478;28;19915;-69
2022/01/31 01:29:10;;;;;;;;;;;6.10;99.90;;;;;;2109689;28;19951;-69
2022/01/31 01:30:13;;;;;;;;;;;6.10;99.90;;;;;;2113273;28;19919;-69
2022/01/31 01:31:14;;;;;;;;;;;6.10;99.90;;;;;;2109689;28;19908;-69
2022/01/31 01:32:15;;;;;;;;;;;6.10;99.90;;;;;;2110427;28;19912;-69
2022/01/31 01:33:21;;;;;;;;;;;6.10;99.90;;;;;;2112287;28;19911;-69
2022/01/31 01:34:23;;;;;;;;;;;6.10;99.90;;;;;;2121305;27;20527;-69
2022/01/31 01:35:30;;;;;;;;;;;6.10;99.90;;;;;;2117077;27;19908;-70
2022/01/31 01:36:32;;;;;;;;;;;6.10;99.90;;;;;;2112547;28;19920;-69
2022/01/31 01:37:32;;;;;;;;;;;6.10;99.90;;;;;;2104270;28;19912;-69
2022/01/31 01:38:33;;;;;;;;;;;6.10;99.90;;;;;;2104620;28;20352;-69
2022/01/31 01:39:33;;;;;;;;;;;6.10;99.90;;;;;;2110891;27;19920;-69
2022/01/31 01:40:35;;;;;;;;;;;6.10;99.90;;;;;;2106504;28;19912;-70
2022/01/31 01:41:35;;;;;;;;;;;6.10;99.90;;;;;;2106035;28;19999;-69
2022/01/31 01:42:36;;;;;;;;;;;6.10;99.90;;;;;;2114428;27;19916;-70
2022/01/31 01:43:38;;;;;;;;;;;6.10;99.90;;;;;;2113248;28;20252;-69
2022/01/31 01:44:38;;;;;;;;;;;6.10;99.90;;;;;;2112370;28;19918;-69
2022/01/31 01:45:40;;;;;;;;;;;6.10;99.90;;;;;;2108863;28;20461;-70
2022/01/31 01:46:40;;;;;;;;;;;6.10;99.90;;;;;;2109454;28;20444;-69
2022/01/31 01:47:40;;;;;;;;;;;6.10;99.90;;;;;;2111986;28;20311;-69
2022/01/31 01:48:41;;;;;;;;;;;6.10;99.90;;;;;;2112596;28;19912;-69
2022/01/31 01:49:42;;;;;;;;;;;6.10;99.90;;;;;;2113600;28;19951;-69
2022/01/31 01:50:42;;;;;;;;;;;6.10;99.90;;;;;;2112054;28;19919;-69
2022/01/31 01:51:43;;;;;;;;;;;6.10;99.90;;;;;;2110704;28;19914;-69
2022/01/31 01:52:43;;;;;;;;;;;6.10;99.90;;;;;;2112455;28;19966;-69
2022/01/31 01:53:43;;;;;;;;;;;6.10;99.90;;;;;;2109847;28;19912;-69
2022/01/31 01:54:50;;;;;;;;;;;6.20;99.90;;;;;;2104485;28;19918;-70
2022/01/31 01:55:52;;;;;;;;;;;6.10;99.90;;;;;;2104130;28;19955;-69
2022/01/31 01:56:53;;;;;;;;;;;6.10;99.90;;;;;;2113829;28;19944;-69
2022/01/31 01:57:55;;;;;;;;;;;6.10;99.90;;;;;;2112827;28;19917;-69
2022/01/31 01:58:55;;;;;;;;;;;6.10;99.90;;;;;;2111497;28;19908;-69
2022/01/31 01:59:57;;;;;;;;;;;6.10;99.90;;;;;;2109534;28;19912;-69
2022/01/31 02:01:02;;;;;;;;;;;6.10;99.90;;;;;;2113534;28;19943;-69
2022/01/31 02:02:03;;;;;;;;;;;6.10;99.90;;;;;;2109416;28;19947;-69
2022/01/31 02:03:03;;;;;;;;;;;6.20;99.90;;;;;;2112595;28;20796;-70
2022/01/31 02:04:04;;;;;;;;;;;6.10;99.90;;;;;;2113346;28;20422;-69
2022/01/31 02:05:04;;;;;;;;;;;6.20;99.90;;;;;;2112483;28;19914;-69
2022/01/31 02:06:06;;;;;;;;;;;6.10;99.90;;;;;;2111706;28;20387;-69
2022/01/31 02:07:08;;;;;;;;;;;6.20;99.90;;;;;;2112527;28;19915;-69
2022/01/31 02:08:10;;;;;;;;;;;6.20;99.90;;;;;;2110961;28;19908;-69
2022/01/31 02:09:11;;;;;;;;;;;6.20;99.90;;;;;;2113786;28;19969;-69
2022/01/31 02:10:12;;;;;;;;;;;6.20;99.90;;;;;;2105601;28;19991;-69
2022/01/31 02:11:13;;;;;;;;;;;6.20;99.90;;;;;;2105675;28;19948;-71
2022/01/31 02:12:13;;;;;;;;;;;6.20;99.90;;;;;;2114327;28;19915;-69
2022/01/31 02:13:15;;;;;;;;;;;6.20;99.90;;;;;;2113372;28;19918;-69
2022/01/31 02:14:15;;;;;;;;;;;6.20;99.90;;;;;;2113535;28;19911;-69
2022/01/31 02:15:17;;;;;;;;;;;6.20;99.90;;;;;;2110624;28;20026;-69
2022/01/31 02:16:18;;;;;;;;;;;6.20;99.90;;;;;;2116631;28;19912;-69
2022/01/31 02:17:19;;;;;;;;;;;6.20;99.90;;;;;;2117953;28;19907;-70
2022/01/31 02:18:24;;;;;;;;;;;6.20;99.90;;;;;;2105668;28;19908;-70
2022/01/31 02:19:24;;;;;;;;;;;6.20;99.90;;;;;;2105728;28;19920;-70
2022/01/31 02:20:25;;;;;;;;;;;6.20;99.90;;;;;;2105773;28;19908;-69
2022/01/31 02:21:25;;;;;;;;;;;6.20;99.90;;;;;;2105337;28;19920;-70
2022/01/31 02:22:26;;;;;;;;;;;6.20;99.90;;;;;;2105791;28;20264;-70
2022/01/31 02:23:27;;;;;;;;;;;6.20;99.90;;;;;;2111520;28;19911;-70
2022/01/31 02:24:30;;;;;;;;;;;6.20;99.90;;;;;;2113032;28;19908;-70
2022/01/31 02:25:30;;;;;;;;;;;6.20;99.90;;;;;;2111794;28;19912;-70
2022/01/31 02:26:31;;;;;;;;;;;6.20;99.90;;;;;;2112657;28;19912;-70
2022/01/31 02:27:35;;;;;;;;;;;6.10;99.90;;;;;;2114979;28;19951;-70
2022/01/31 02:28:38;;;;;;;;;;;6.10;99.90;;;;;;2111743;28;19912;-70
2022/01/31 02:29:38;;;;;;;;;;;6.10;99.90;;;;;;2111821;28;19912;-71
2022/01/31 02:30:39;;;;;;;;;;;6.10;99.90;;;;;;2112650;28;19908;-70
2022/01/31 02:31:46;;;;;;;;;;;6.10;99.90;;;;;;2113803;28;19908;-70
2022/01/31 02:32:47;;;;;;;;;;;6.10;99.90;;;;;;2114181;28;19912;-70
2022/01/31 02:33:47;;;;;;;;;;;6.10;99.90;;;;;;2110394;28;20251;-70
2022/01/31 02:34:48;;;;;;;;;;;6.00;99.90;;;;;;2113392;28;19912;-71
2022/01/31 02:35:51;;;;;;;;;;;6.00;99.90;;;;;;2112334;28;19912;-70
2022/01/31 02:36:52;;;;;;;;;;;6.00;99.90;;;;;;2111700;28;20433;-71
2022/01/31 02:37:52;;;;;;;;;;;6.00;99.90;;;;;;2114258;28;20309;-71
2022/01/31 02:38:53;;;;;;;;;;;6.00;99.90;;;;;;2110762;28;19915;-71
2022/01/31 02:39:53;;;;;;;;;;;6.00;99.90;;;;;;2113881;28;19957;-71
2022/01/31 02:40:54;;;;;;;;;;;6.00;99.90;;;;;;2110985;28;20363;-71
2022/01/31 02:41:54;;;;;;;;;;;5.90;99.90;;;;;;2112686;28;19912;-71
2022/01/31 02:42:55;;;;;;;;;;;5.90;99.90;;;;;;2105714;28;19911;-71
2022/01/31 02:43:55;;;;;;;;;;;5.90;99.90;;;;;;2105611;28;19912;-71
2022/01/31 02:44:56;;;;;;;;;;;5.90;99.90;;;;;;2113681;28;19954;-70
2022/01/31 02:45:57;;;;;;;;;;;5.90;99.90;;;;;;2112224;28;19909;-71
2022/01/31 02:46:58;;;;;;;;;;;5.80;99.90;;;;;;2113605;28;20279;-71
2022/01/31 02:48:01;;;;;;;;;;;5.80;99.90;;;;;;2110443;28;19912;-71
2022/01/31 02:49:01;;;;;;;;;;;5.80;99.90;;;;;;2110888;28;19934;-71
2022/01/31 02:50:05;;;;;;;;;;;5.80;99.90;;;;;;2114529;28;19923;-71
2022/01/31 02:51:10;;;;;;;;;;;5.80;99.90;;;;;;2110935;28;19958;-71
2022/01/31 02:52:13;;;;;;;;;;;5.80;99.90;;;;;;2102256;28;20519;-71
2022/01/31 02:53:22;;;;;;;;;;;5.80;99.90;;;;;;2105710;28;20371;-71
2022/01/31 02:54:23;;;;;;;;;;;5.80;99.90;;;;;;2113381;28;19916;-71
2022/01/31 02:55:24;;;;;;;;;;;5.70;99.90;;;;;;2111329;28;19912;-71
2022/01/31 02:56:24;;;;;;;;;;;5.70;99.90;;;;;;2114891;28;20274;-71
2022/01/31 02:57:24;;;;;;;;;;;5.70;99.90;;;;;;2105960;28;19923;-71
2022/01/31 02:58:27;;;;;;;;;;;5.70;99.90;;;;;;2109838;28;19930;-71
2022/01/31 02:59:27;;;;;;;;;;;5.70;99.90;;;;;;2115912;28;20355;-71
2022/01/31 03:00:27;;;;;;;;;;;5.70;99.90;;;;;;2116123;28;20411;-72
2022/01/31 03:01:28;;;;;;;;;;;5.70;99.90;;;;;;2120780;27;20326;-71
2022/01/31 03:02:28;;;;;;;;;;;5.70;99.90;;;;;;2120618;27;19915;-71
2022/01/31 03:03:29;;;;;;;;;;;5.70;99.90;;;;;;2112535;28;19912;-71
2022/01/31 03:04:29;;;;;;;;;;;5.60;99.90;;;;;;2116328;28;19916;-71
2022/01/31 03:05:30;;;;;;;;;;;5.60;99.90;;;;;;2106691;28;19919;-71
2022/01/31 03:06:30;;;;;;;;;;;5.60;99.90;;;;;;2107196;28;20360;-71
2022/01/31 03:07:31;;;;;;;;;;;5.60;99.90;;;;;;2116187;28;19919;-71
2022/01/31 03:08:32;;;;;;;;;;;5.50;99.90;;;;;;2107239;28;19912;-71
2022/01/31 03:09:33;;;;;;;;;;;5.50;99.90;;;;;;2106995;28;19916;-71
2022/01/31 03:10:34;;;;;;;;;;;5.50;99.90;;;;;;2115468;28;19908;-71
2022/01/31 03:11:34;;;;;;;;;;;5.50;99.90;;;;;;2107061;28;19912;-71
2022/01/31 03:12:34;;;;;;;;;;;5.50;99.90;;;;;;2107260;28;19919;-72
2022/01/31 03:13:35;;;;;;;;;;;5.50;99.90;;;;;;2114611;28;19916;-72
2022/01/31 03:14:35;;;;;;;;;;;5.50;99.90;;;;;;2116285;28;20371;-71
2022/01/31 03:15:36;;;;;;;;;;;5.40;99.90;;;;;;2112800;28;19959;-71
2022/01/31 03:16:40;;;;;;;;;;;5.40;99.90;;;;;;2112209;28;19915;-71
2022/01/31 03:17:45;;;;;;;;;;;5.40;99.90;;;;;;2111488;28;20260;-72
2022/01/31 03:18:46;;;;;;;;;;;5.40;99.90;;;;;;2113760;28;20302;-71
2022/01/31 03:19:52;;;;;;;;;;;5.40;99.90;;;;;;2113663;28;19934;-71
2022/01/31 03:20:53;;;;;;;;;;;5.40;99.90;;;;;;2112448;28;19995;-71
2022/01/31 03:21:53;;;;;;;;;;;5.30;99.90;;;;;;2114967;28;19908;-71
2022/01/31 03:22:54;;;;;;;;;;;5.30;99.90;;;;;;2111963;28;20352;-71
2022/01/31 03:23:54;;;;;;;;;;;5.30;99.90;;;;;;2106748;28;19916;-71
2022/01/31 03:24:55;;;;;;;;;;;5.30;99.90;;;;;;2106909;28;19933;-71
2022/01/31 03:25:55;;;;;;;;;;;5.30;99.90;;;;;;2111875;28;19915;-71
2022/01/31 03:26:56;;;;;;;;;;;5.30;99.90;;;;;;2115365;28;19908;-71
2022/01/31 03:27:56;;;;;;;;;;;5.30;99.90;;;;;;2112869;28;20268;-71
2022/01/31 03:28:57;;;;;;;;;;;5.30;99.90;;;;;;2114504;28;19908;-71
2022/01/31 03:29:57;;;;;;;;;;;5.30;99.90;;;;;;2116234;28;20041;-71
2022/01/31 03:30:58;;;;;;;;;;;5.30;99.90;;;;;;2112043;28;19943;-71
2022/01/31 03:31:58;;;;;;;;;;;5.20;99.90;;;;;;2115555;28;19922;-72
2022/01/31 03:32:58;;;;;;;;;;;5.20;99.90;;;;;;2114191;28;19912;-71
2022/01/31 03:33:59;;;;;;;;;;;5.30;99.90;;;;;;2116013;28;20339;-71
2022/01/31 03:35:01;;;;;;;;;;;5.30;99.90;;;;;;2115692;28;19908;-71
2022/01/31 03:36:02;;;;;;;;;;;5.20;99.90;;;;;;2113755;28;19908;-71
2022/01/31 03:37:02;;;;;;;;;;;5.20;99.90;;;;;;2114076;28;19997;-71
2022/01/31 03:38:03;;;;;;;;;;;5.20;99.90;;;;;;2116172;28;19908;-71
2022/01/31 03:39:03;;;;;;;;;;;5.20;99.90;;;;;;2113871;28;19918;-71
2022/01/31 03:40:04;;;;;;;;;;;5.20;99.90;;;;;;2114616;28;20253;-71
2022/01/31 03:41:05;;;;;;;;;;;5.20;99.90;;;;;;2113381;28;20283;-71
2022/01/31 03:42:06;;;;;;;;;;;5.20;99.90;;;;;;2106859;28;19908;-71
2022/01/31 03:43:06;;;;;;;;;;;5.10;99.90;;;;;;2107184;28;19912;-71
2022/01/31 03:44:06;;;;;;;;;;;5.10;99.90;;;;;;2113874;28;19911;-72
2022/01/31 03:45:08;;;;;;;;;;;5.10;99.90;;;;;;2112316;28;19915;-71
2022/01/31 03:46:09;;;;;;;;;;;5.10;99.90;;;;;;2115862;28;19907;-71
2022/01/31 03:47:10;;;;;;;;;;;5.10;99.90;;;;;;2114969;28;20363;-71
2022/01/31 03:48:10;;;;;;;;;;;5.10;99.90;;;;;;2113517;28;19911;-71
2022/01/31 03:49:11;;;;;;;;;;;5.10;99.90;;;;;;2113437;28;19959;-72
2022/01/31 03:50:12;;;;;;;;;;;5.10;99.90;;;;;;2125992;27;19968;-71
2022/01/31 03:51:13;;;;;;;;;;;5.10;99.90;;;;;;2121916;27;19954;-71
2022/01/31 03:52:14;;;;;;;;;;;5.10;99.90;;;;;;2112080;28;19908;-71
2022/01/31 03:53:14;;;;;;;;;;;5.10;99.90;;;;;;2111806;28;19983;-71
2022/01/31 03:54:14;;;;;;;;;;;5.10;99.90;;;;;;2114411;28;19907;-71
2022/01/31 03:55:15;;;;;;;;;;;5.10;99.90;;;;;;2111737;28;19908;-71
2022/01/31 03:56:15;;;;;;;;;;;5.10;99.90;;;;;;2113872;28;19908;-71
2022/01/31 03:57:16;;;;;;;;;;;5.10;99.90;;;;;;2114967;28;20001;-72
2022/01/31 03:58:16;;;;;;;;;;;5.10;99.90;;;;;;2112419;28;19908;-72
2022/01/31 03:59:17;;;;;;;;;;;5.10;99.90;;;;;;2115313;28;19915;-72
2022/01/31 04:00:18;;;;;;;;;;;5.10;99.90;;;;;;2111963;28;20284;-72
2022/01/31 04:01:19;;;;;;;;;;;5.20;99.90;;;;;;2115872;28;19912;-72
2022/01/31 04:02:19;;;;;;;;;;;5.10;99.90;;;;;;2113552;28;19919;-71
2022/01/31 04:03:20;;;;;;;;;;;5.10;99.90;;;;;;2111750;28;20526;-71
2022/01/31 04:04:20;;;;;;;;;;;5.20;99.90;;;;;;2111291;28;19920;-71
2022/01/31 04:05:21;;;;;;;;;;;5.10;99.90;;;;;;2113013;28;20359;-71
2022/01/31 04:06:23;;;;;;;;;;;5.10;99.90;;;;;;2113712;28;21566;-71
2022/01/31 04:07:24;;;;;;;;;;;5.10;99.90;;;;;;2105166;28;19947;-71
2022/01/31 04:08:24;;;;;;;;;;;5.10;99.90;;;;;;2104637;28;19912;-72
2022/01/31 04:09:25;;;;;;;;;;;5.20;99.90;;;;;;2112244;28;20276;-72
2022/01/31 04:10:26;;;;;;;;;;;5.20;99.90;;;;;;2112219;28;19923;-71
2022/01/31 04:11:26;;;;;;;;;;;5.20;99.90;;;;;;2110430;28;19915;-71
2022/01/31 04:12:26;;;;;;;;;;;5.20;99.90;;;;;;2113619;28;19916;-72
2022/01/31 04:13:27;;;;;;;;;;;5.20;99.90;;;;;;2110421;28;20316;-71
2022/01/31 04:14:27;;;;;;;;;;;5.20;99.90;;;;;;2105112;28;19995;-71
2022/01/31 04:15:28;;;;;;;;;;;5.20;99.90;;;;;;2104521;28;21032;-71
2022/01/31 04:16:28;;;;;;;;;;;5.20;99.90;;;;;;2110333;28;20368;-71
2022/01/31 04:17:31;;;;;;;;;;;5.30;99.90;;;;;;2111259;28;19908;-71
2022/01/31 04:18:32;;;;;;;;;;;5.30;99.90;;;;;;2113325;28;20332;-71
2022/01/31 04:19:33;;;;;;;;;;;5.30;99.90;;;;;;2110427;28;20247;-72
2022/01/31 04:20:33;;;;;;;;;;;5.30;99.90;;;;;;2114054;28;19911;-71
2022/01/31 04:21:34;;;;;;;;;;;5.30;99.90;;;;;;2111037;28;20594;-72
2022/01/31 04:22:38;;;;;;;;;;;5.30;99.90;;;;;;2110074;28;19957;-72
2022/01/31 04:23:39;;;;;;;;;;;5.30;99.90;;;;;;2112931;28;19994;-71
2022/01/31 04:24:41;;;;;;;;;;;5.30;99.90;;;;;;2114292;28;19916;-72
2022/01/31 04:25:46;;;;;;;;;;;5.40;99.90;;;;;;2101926;28;19987;-72
2022/01/31 04:26:56;;;;;;;;;;;5.40;99.90;;;;;;2105563;28;20089;-71
2022/01/31 04:28:04;;;;;;;;;;;5.40;99.90;;;;;;2111599;28;19915;-71
2022/01/31 04:29:08;;;;;;;;;;;5.40;99.90;;;;;;2109698;28;19959;-71
2022/01/31 04:30:09;;;;;;;;;;;5.40;99.90;;;;;;2112107;28;19998;-71
2022/01/31 04:32:22;;;;;;;;;;;5.40;99.90;;;;;;2103140;28;20420;-71
2022/01/31 04:33:23;;;;;;;;;;;5.40;99.90;;;;;;2113936;28;20010;-71
2022/01/31 04:34:24;;;;;;;;;;;5.50;99.90;;;;;;2111842;28;20381;-71
2022/01/31 04:35:25;;;;;;;;;;;5.50;99.90;;;;;;2113202;28;20271;-71
2022/01/31 04:36:25;;;;;;;;;;;5.50;99.90;;;;;;2114107;28;19908;-71
2022/01/31 04:37:26;;;;;;;;;;;5.50;99.90;;;;;;2110283;28;19940;-71
2022/01/31 04:38:26;;;;;;;;;;;5.50;99.90;;;;;;2113184;28;19986;-71
2022/01/31 04:39:29;;;;;;;;;;;5.60;99.90;;;;;;2111312;28;19919;-71
2022/01/31 04:40:29;;;;;;;;;;;5.60;99.90;;;;;;2110271;28;19908;-71
2022/01/31 04:41:30;;;;;;;;;;;5.60;99.90;;;;;;2113137;28;19923;-71
2022/01/31 04:42:30;;;;;;;;;;;5.60;99.90;;;;;;2110162;28;19919;-71
2022/01/31 04:43:32;;;;;;;;;;;5.60;99.90;;;;;;2109582;28;19916;-71
2022/01/31 04:44:33;;;;;;;;;;;5.60;99.90;;;;;;2114509;28;19916;-71
2022/01/31 04:45:33;;;;;;;;;;;5.60;99.90;;;;;;2104524;28;19939;-71
2022/01/31 04:46:34;;;;;;;;;;;5.60;99.90;;;;;;2100938;28;19947;-71
2022/01/31 04:47:34;;;;;;;;;;;5.60;99.90;;;;;;2112280;28;19958;-71
2022/01/31 04:48:35;;;;;;;;;;;5.70;99.90;;;;;;2110337;28;19908;-71
2022/01/31 04:49:35;;;;;;;;;;;5.70;99.90;;;;;;2112455;28;19908;-71
2022/01/31 04:50:36;;;;;;;;;;;5.70;99.90;;;;;;2110486;28;19919;-71
2022/01/31 04:51:36;;;;;;;;;;;5.70;99.90;;;;;;2104625;28;19976;-71
2022/01/31 04:52:38;;;;;;;;;;;5.80;99.90;;;;;;2104753;28;19912;-71
2022/01/31 04:53:39;;;;;;;;;;;5.80;99.90;;;;;;2104717;28;19920;-71
2022/01/31 04:54:41;;;;;;;;;;;5.80;99.90;;;;;;2104900;28;19947;-71
2022/01/31 04:55:41;;;;;;;;;;;5.80;99.90;;;;;;2111266;28;19912;-71
2022/01/31 04:56:43;;;;;;;;;;;5.80;99.90;;;;;;2109472;28;19915;-71
2022/01/31 04:57:44;;;;;;;;;;;5.80;99.90;;;;;;2111138;28;19908;-71
2022/01/31 04:58:44;;;;;;;;;;;5.80;99.90;;;;;;2104623;28;19923;-72
2022/01/31 04:59:45;;;;;;;;;;;5.80;99.90;;;;;;2104825;28;20458;-71
2022/01/31 05:00:45;;;;;;;;;;;5.80;99.90;;;;;;2112247;28;19908;-70
2022/01/31 05:01:48;;;;;;;;;;;5.90;99.90;;;;;;2110492;28;19911;-71
2022/01/31 05:02:48;;;;;;;;;;;5.90;99.90;;;;;;2110020;28;20065;-71
2022/01/31 05:03:49;;;;;;;;;;;5.90;99.90;;;;;;2112685;28;19907;-71
2022/01/31 05:04:50;;;;;;;;;;;5.90;99.90;;;;;;2112245;28;20007;-71
2022/01/31 05:05:51;;;;;;;;;;;5.90;99.90;;;;;;2111788;28;19941;-71
2022/01/31 05:06:51;;;;;;;;;;;5.90;99.90;;;;;;2110046;28;19912;-71
2022/01/31 05:07:54;;;;;;;;;;;5.90;99.90;;;;;;2110570;28;19908;-71
2022/01/31 05:08:54;;;;;;;;;;;6.00;99.90;;;;;;2113294;28;20385;-71
2022/01/31 05:09:55;;;;;;;;;;;6.00;99.90;;;;;;2112926;28;20382;-71
2022/01/31 05:10:56;;;;;;;;;;;6.00;99.90;;;;;;2112581;28;19908;-71
2022/01/31 05:11:56;;;;;;;;;;;6.00;99.90;;;;;;2109603;28;19914;-71
2022/01/31 05:12:57;;;;;;;;;;;6.00;99.90;;;;;;2109620;28;19923;-71
2022/01/31 05:13:57;;;;;;;;;;;6.00;99.90;;;;;;2110291;28;20449;-71
2022/01/31 05:14:58;;;;;;;;;;;6.00;99.90;;;;;;2111629;28;19908;-71
2022/01/31 05:15:58;;;;;;;;;;;6.10;99.90;;;;;;2112593;28;19912;-71
2022/01/31 05:16:58;;;;;;;;;;;6.10;99.90;;;;;;2109944;28;19911;-71
2022/01/31 05:17:59;;;;;;;;;;;6.00;99.90;;;;;;2109669;28;19907;-71
2022/01/31 05:19:01;;;;;;;;;;;6.10;99.90;;;;;;2111510;28;19923;-71
2022/01/31 05:20:02;;;;;;;;;;;6.10;99.90;;;;;;2112192;28;19912;-71
2022/01/31 05:21:05;;;;;;;;;;;6.10;99.90;;;;;;2109823;28;19919;-71
2022/01/31 05:22:05;;;;;;;;;;;6.10;99.90;;;;;;2113348;28;19912;-73
2022/01/31 05:23:06;;;;;;;;;;;6.10;99.90;;;;;;2104656;28;19965;-71
2022/01/31 05:24:07;;;;;;;;;;;6.10;99.90;;;;;;2104541;28;20003;-71
2022/01/31 05:25:07;;;;;;;;;;;6.20;99.90;;;;;;2113488;28;19927;-71
2022/01/31 05:26:08;;;;;;;;;;;6.20;99.90;;;;;;2115502;27;19943;-71
2022/01/31 05:27:08;;;;;;;;;;;6.20;99.90;;;;;;2112139;28;20006;-71
2022/01/31 05:28:09;;;;;;;;;;;6.20;99.90;;;;;;2113356;28;19912;-70
2022/01/31 05:29:09;;;;;;;;;;;6.20;99.90;;;;;;2109399;28;19961;-71
2022/01/31 05:30:10;;;;;;;;;;;6.20;99.90;;;;;;2114895;27;19920;-71
2022/01/31 05:31:10;;;;;;;;;;;6.20;99.90;;;;;;2111293;28;19920;-70
2022/01/31 05:32:11;;;;;;;;;;;6.20;99.90;;;;;;2114194;27;20006;-71
2022/01/31 05:33:11;;;;;;;;;;;6.20;99.90;;;;;;2110813;28;19954;-71
2022/01/31 05:34:12;;;;;;;;;;;6.30;99.90;;;;;;2109699;28;19907;-70
2022/01/31 05:35:12;;;;;;;;;;;6.30;99.90;;;;;;2112681;28;19919;-71
2022/01/31 05:36:13;;;;;;;;;;;6.30;99.90;;;;;;2113885;28;19988;-71
2022/01/31 05:37:13;;;;;;;;;;;6.30;99.90;;;;;;2112897;27;19998;-71
2022/01/31 05:38:14;;;;;;;;;;;6.30;99.90;;;;;;2115367;27;19907;-71
2022/01/31 05:39:14;;;;;;;;;;;6.30;99.90;;;;;;2111222;27;19931;-71
2022/01/31 05:40:15;;;;;;;;;;;6.30;99.90;;;;;;2111441;28;19998;-71
2022/01/31 05:41:20;;;;;;;;;;;6.30;99.90;;;;;;2110444;27;19951;-71
2022/01/31 05:42:20;;;;;;;;;;;6.30;99.90;;;;;;2115077;27;20007;-71
2022/01/31 05:43:21;;;;;;;;;;;6.40;99.90;;;;;;2111636;27;20347;-72
2022/01/31 05:44:22;;;;;;;;;;;6.40;99.90;;;;;;2114414;27;19912;-71
2022/01/31 05:45:22;;;;;;;;;;;6.40;99.90;;;;;;2116382;27;19912;-71
2022/01/31 05:46:23;;;;;;;;;;;6.40;99.90;;;;;;2114734;27;19923;-71
2022/01/31 05:47:23;;;;;;;;;;;6.40;99.90;;;;;;2111429;27;19916;-71
2022/01/31 05:48:24;;;;;;;;;;;6.40;99.90;;;;;;2116949;27;19915;-71
2022/01/31 05:49:25;;;;;;;;;;;6.40;99.90;;;;;;2108784;28;19908;-71
2022/01/31 05:50:25;;;;;;;;;;;6.40;99.90;;;;;;2111163;27;19968;-71
2022/01/31 05:51:26;;;;;;;;;;;6.40;99.90;;;;;;2117332;27;19918;-71
2022/01/31 05:52:27;;;;;;;;;;;6.40;99.90;;;;;;2113860;27;19911;-71
2022/01/31 05:53:27;;;;;;;;;;;6.40;99.90;;;;;;2112314;28;19968;-71
2022/01/31 05:54:28;;;;;;;;;;;6.40;99.90;;;;;;2101552;28;19919;-71
2022/01/31 05:55:29;;;;;;;;;;;6.40;99.90;;;;;;2106275;28;19912;-71
2022/01/31 05:56:29;;;;;;;;;;;6.40;99.90;;;;;;2113464;28;19908;-71
2022/01/31 05:57:32;;;;;;;;;;;6.50;99.90;;;;;;2114847;27;19911;-71
2022/01/31 05:58:34;;;;;;;;;;;6.50;99.90;;;;;;2114856;27;19911;-71
2022/01/31 05:59:35;;;;;;;;;;;6.50;99.90;;;;;;2111833;28;19908;-71
2022/01/31 06:00:37;;;;;;;;;;;6.50;99.90;;;;;;2104589;28;19909;-71
2022/01/31 06:01:39;;;;;;;;;;;6.50;99.90;;;;;;2104129;28;19908;-71
2022/01/31 06:02:39;;;;;;;;;;;6.50;99.90;;;;;;2114425;27;19911;-72
2022/01/31 06:03:40;;;;;;;;;;;6.50;99.90;;;;;;2116305;27;19907;-72